createdAt,value
2018-04-22T00:01:10.513Z,21.60
2018-04-22T00:03:38.140Z,23.90
2018-04-22T00:06:07.396Z,22.93
2018-04-22T00:08:36.867Z,22.97
2018-04-22T00:11:06.224Z,22.23
2018-04-22T00:13:36.564Z,21.70
2018-04-22T00:16:05.028Z,20.73
2018-04-22T00:18:35.613Z,25.73
2018-04-22T00:21:06.037Z,21.10
2018-04-22T00:23:35.050Z,21.00
2018-04-22T00:26:04.241Z,23.57
2018-04-22T00:28:31.700Z,22.00
2018-04-22T00:31:01.956Z,24.27
2018-04-22T00:33:31.440Z,25.63
2018-04-22T00:36:01.999Z,19.40
2018-04-22T00:38:31.825Z,25.50
2018-04-22T00:41:01.312Z,24.90
2018-04-22T00:43:31.019Z,24.07
2018-04-22T00:46:00.537Z,21.40
2018-04-22T00:48:30.121Z,25.27
2018-04-22T00:50:59.316Z,28.23
2018-04-22T00:53:28.618Z,22.40
2018-04-22T00:55:58.227Z,22.73
2018-04-22T00:58:27.695Z,24.60
2018-04-22T01:00:57.216Z,22.53
2018-04-22T01:03:26.276Z,27.90
2018-04-22T01:05:55.468Z,24.83
2018-04-22T01:08:22.951Z,23.10
2018-04-22T01:10:53.703Z,25.00
2018-04-22T01:13:22.994Z,22.97
2018-04-22T01:15:52.332Z,21.60
2018-04-22T01:18:25.405Z,21.70
2018-04-22T01:20:54.910Z,22.43
2018-04-22T01:23:24.201Z,20.27
2018-04-22T01:25:53.986Z,21.33
2018-04-22T01:28:23.068Z,24.23
2018-04-22T01:30:52.235Z,24.73
2018-04-22T01:33:21.641Z,21.00
2018-04-22T01:35:52.700Z,22.63
2018-04-22T01:38:22.368Z,28.73
2018-04-22T01:40:52.008Z,23.47
2018-04-22T01:43:21.798Z,23.10
2018-04-22T01:45:51.407Z,23.20
2018-04-22T01:48:20.899Z,24.03
2018-04-22T01:50:50.596Z,21.57
2018-04-22T01:53:20.997Z,23.27
2018-04-22T01:55:52.887Z,19.93
2018-04-22T01:58:26.277Z,23.10
2018-04-22T02:00:53.740Z,22.63
2018-04-22T02:03:22.772Z,24.77
2018-04-22T02:05:51.993Z,22.47
2018-04-22T02:08:21.880Z,23.80
2018-04-22T02:10:51.328Z,22.63
2018-04-22T02:13:19.626Z,25.30
2018-04-22T02:15:50.559Z,23.73
2018-04-22T02:18:20.379Z,21.30
2018-04-22T02:20:49.763Z,20.60
2018-04-22T02:23:19.856Z,21.10
2018-04-22T02:25:49.053Z,22.10
2018-04-22T02:28:18.646Z,20.57
2018-04-22T02:30:47.855Z,23.13
2018-04-22T02:33:17.229Z,19.73
2018-04-22T02:35:47.373Z,24.90
2018-04-22T02:38:18.376Z,23.33
2018-04-22T02:40:49.574Z,20.80
2018-04-22T02:43:18.918Z,22.13
2018-04-22T02:45:48.621Z,22.70
2018-04-22T02:48:18.070Z,21.77
2018-04-22T02:50:45.690Z,22.67
2018-04-22T02:53:18.217Z,22.70
2018-04-22T02:55:47.505Z,20.70
2018-04-22T02:58:17.386Z,22.07
2018-04-22T03:00:46.667Z,26.50
2018-04-22T03:03:14.830Z,24.80
2018-04-22T03:05:44.269Z,28.00
2018-04-22T03:08:13.616Z,27.93
2018-04-22T03:10:43.503Z,27.73
2018-04-22T03:13:12.919Z,27.17
2018-04-22T03:15:47.470Z,25.47
2018-04-22T03:18:16.827Z,30.00
2018-04-22T03:20:47.284Z,28.33
2018-04-22T03:23:16.594Z,28.40
2018-04-22T03:25:45.975Z,30.73
2018-04-22T03:28:15.204Z,29.23
2018-04-22T03:30:44.679Z,34.20
2018-04-22T03:33:14.194Z,31.53
2018-04-22T03:35:44.472Z,31.10
2018-04-22T03:38:13.695Z,35.63
2018-04-22T03:40:42.834Z,28.03
2018-04-22T03:43:11.928Z,30.20
2018-04-22T03:45:40.694Z,27.63
2018-04-22T03:48:11.338Z,25.60
2018-04-22T03:50:41.038Z,31.77
2018-04-22T03:53:10.525Z,30.43
2018-04-22T03:55:37.967Z,26.63
2018-04-22T03:58:08.374Z,28.63
2018-04-22T04:00:37.284Z,24.57
2018-04-22T04:03:06.843Z,25.77
2018-04-22T04:05:36.448Z,26.93
2018-04-22T04:08:04.493Z,25.77
2018-04-22T04:10:33.797Z,27.83
2018-04-22T04:13:03.182Z,26.47
2018-04-22T04:15:32.326Z,23.10
2018-04-22T04:21:30.236Z,26.30
2018-04-22T04:27:26.740Z,25.37
2018-04-22T04:29:56.746Z,22.17
2018-04-22T04:32:26.347Z,24.53
2018-04-22T04:34:55.584Z,23.87
2018-04-22T04:37:24.828Z,24.43
2018-04-22T04:39:54.523Z,26.77
2018-04-22T04:42:23.652Z,26.70
2018-04-22T04:44:53.830Z,25.83
2018-04-22T04:47:23.566Z,31.60
2018-04-22T04:49:52.840Z,25.90
2018-04-22T04:52:22.293Z,21.37
2018-04-22T04:54:52.313Z,19.30
2018-04-22T04:57:21.750Z,22.00
2018-04-22T04:59:50.939Z,24.33
2018-04-22T05:02:20.366Z,25.27
2018-04-22T05:04:49.901Z,21.70
2018-04-22T05:07:19.418Z,25.10
2018-04-22T05:09:50.778Z,26.43
2018-04-22T05:12:20.788Z,31.70
2018-04-22T05:14:50.089Z,26.73
2018-04-22T05:17:19.776Z,25.30
2018-04-22T05:19:52.191Z,27.07
2018-04-22T05:22:22.511Z,24.10
2018-04-22T05:24:51.822Z,24.43
2018-04-22T05:27:22.991Z,27.63
2018-04-22T05:29:52.136Z,25.37
2018-04-22T05:32:21.971Z,30.90
2018-04-22T05:34:52.333Z,28.70
2018-04-22T05:37:22.442Z,27.60
2018-04-22T05:39:51.969Z,33.53
2018-04-22T05:42:22.011Z,26.33
2018-04-22T05:44:51.346Z,25.90
2018-04-22T05:47:20.680Z,24.93
2018-04-22T05:49:49.990Z,29.53
2018-04-22T05:52:19.284Z,24.70
2018-04-22T05:54:48.623Z,24.67
2018-04-22T05:57:18.722Z,26.27
2018-04-22T05:59:48.473Z,26.30
2018-04-22T06:02:17.611Z,24.57
2018-04-22T06:04:47.741Z,26.37
2018-04-22T06:07:17.136Z,29.70
2018-04-22T06:09:47.747Z,25.43
2018-04-22T06:12:22.556Z,26.13
2018-04-22T06:14:51.907Z,26.00
2018-04-22T06:17:21.223Z,31.77
2018-04-22T06:19:50.637Z,26.20
2018-04-22T06:22:20.286Z,27.03
2018-04-22T06:24:49.295Z,24.77
2018-04-22T06:27:19.033Z,26.43
2018-04-22T06:29:48.692Z,23.77
2018-04-22T06:32:18.014Z,23.30
2018-04-22T06:34:49.839Z,28.60
2018-04-22T06:37:19.346Z,23.10
2018-04-22T06:39:48.620Z,22.37
2018-04-22T06:42:17.851Z,21.93
2018-04-22T06:44:46.697Z,23.00
2018-04-22T06:47:16.436Z,26.00
2018-04-22T06:49:46.039Z,24.50
2018-04-22T06:52:15.438Z,23.20
2018-04-22T06:54:48.261Z,24.70
2018-04-22T06:57:17.773Z,23.40
2018-04-22T06:59:48.964Z,22.53
2018-04-22T07:02:18.851Z,25.07
2018-04-22T07:04:51.349Z,20.47
2018-04-22T07:07:20.831Z,19.60
2018-04-22T07:09:50.672Z,21.90
2018-04-22T07:12:20.381Z,20.20
2018-04-22T07:14:50.044Z,19.40
2018-04-22T07:17:19.996Z,19.07
2018-04-22T07:19:48.394Z,21.43
2018-04-22T07:22:18.000Z,17.43
2018-04-22T07:24:47.705Z,19.47
2018-04-22T07:27:17.027Z,17.07
2018-04-22T07:29:48.626Z,22.37
2018-04-22T07:32:17.720Z,15.70
2018-04-22T07:34:45.183Z,18.90
2018-04-22T07:37:16.047Z,21.27
2018-04-22T07:39:46.868Z,21.23
2018-04-22T07:42:16.201Z,26.30
2018-04-22T07:44:46.099Z,19.60
2018-04-22T07:47:15.193Z,19.40
2018-04-22T07:49:43.272Z,19.60
2018-04-22T07:52:13.065Z,19.37
2018-04-22T07:54:43.141Z,23.13
2018-04-22T07:57:13.327Z,26.00
2018-04-22T07:59:42.801Z,21.30
2018-04-22T08:02:12.533Z,20.93
2018-04-22T08:04:42.807Z,19.27
2018-04-22T08:07:12.361Z,19.10
2018-04-22T08:09:41.543Z,22.33
2018-04-22T08:12:14.506Z,17.87
2018-04-22T08:14:44.490Z,19.93
2018-04-22T08:17:14.617Z,19.93
2018-04-22T08:19:43.795Z,18.03
2018-04-22T08:22:15.023Z,21.43
2018-04-22T08:24:46.586Z,20.70
2018-04-22T08:27:15.802Z,21.77
2018-04-22T08:29:45.484Z,20.77
2018-04-22T08:32:15.706Z,17.97
2018-04-22T08:34:46.537Z,20.17
2018-04-22T08:37:16.186Z,17.77
2018-04-22T08:39:45.743Z,16.77
2018-04-22T08:42:15.208Z,21.83
2018-04-22T08:44:45.125Z,15.20
2018-04-22T08:47:14.886Z,16.77
2018-04-22T08:49:43.949Z,15.27
2018-04-22T08:52:11.460Z,16.37
2018-04-22T08:54:41.660Z,15.53
2018-04-22T08:57:11.272Z,17.43
2018-04-22T08:59:43.442Z,10.10
2018-04-22T09:02:12.252Z,11.20
2018-04-22T09:04:41.512Z,13.17
2018-04-22T09:07:10.678Z,11.57
2018-04-22T09:09:52.999Z,10.00
2018-04-22T09:12:22.152Z,13.80
2018-04-22T09:14:55.672Z,13.13
2018-04-22T09:17:25.535Z,12.00
2018-04-22T09:19:55.225Z,8.93
2018-04-22T09:22:24.270Z,8.97
2018-04-22T09:24:53.853Z,9.40
2018-04-22T09:27:22.893Z,11.47
2018-04-22T09:29:52.236Z,11.43
2018-04-22T09:32:21.713Z,11.07
2018-04-22T09:34:51.223Z,12.97
2018-04-22T09:37:20.741Z,10.70
2018-04-22T09:39:50.116Z,9.10
2018-04-22T09:42:19.739Z,10.43
2018-04-22T09:44:47.226Z,9.90
2018-04-22T09:47:17.464Z,11.23
2018-04-22T09:49:46.715Z,10.67
2018-04-22T09:52:15.889Z,9.83
2018-04-22T09:54:45.295Z,9.50
2018-04-22T09:57:13.674Z,10.07
2018-04-22T09:59:42.984Z,8.67
2018-04-22T10:02:16.667Z,9.63
2018-04-22T10:04:48.711Z,8.17
2018-04-22T10:07:17.999Z,9.40
2018-04-22T10:09:47.216Z,11.63
2018-04-22T10:12:17.212Z,8.20
2018-04-22T10:14:46.994Z,8.73
2018-04-22T10:17:16.652Z,10.30
2018-04-22T10:19:45.869Z,8.53
2018-04-22T10:22:15.325Z,10.60
2018-04-22T10:24:45.193Z,9.17
2018-04-22T10:27:14.106Z,8.70
2018-04-22T10:29:43.526Z,8.57
2018-04-22T10:32:12.641Z,9.90
2018-04-22T10:34:42.084Z,8.60
2018-04-22T10:37:11.465Z,8.73
2018-04-22T10:39:41.059Z,10.53
2018-04-22T10:42:10.569Z,8.60
2018-04-22T10:44:39.941Z,10.80
2018-04-22T10:47:09.709Z,8.47
2018-04-22T10:49:39.967Z,8.97
2018-04-22T10:52:09.283Z,8.37
2018-04-22T10:54:38.300Z,8.80
2018-04-22T10:57:08.141Z,8.73
2018-04-22T10:59:38.324Z,8.20
2018-04-22T11:02:07.420Z,10.20
2018-04-22T11:04:37.113Z,10.80
2018-04-22T11:07:10.101Z,8.53
2018-04-22T11:09:39.606Z,9.70
2018-04-22T11:12:08.991Z,8.53
2018-04-22T11:14:36.466Z,7.30
2018-04-22T11:17:06.512Z,8.63
2018-04-22T11:19:36.072Z,9.50
2018-04-22T11:22:05.863Z,12.63
2018-04-22T11:24:35.002Z,9.47
2018-04-22T11:27:04.276Z,11.17
2018-04-22T11:29:33.928Z,14.00
2018-04-22T11:32:03.245Z,9.87
2018-04-22T11:34:32.286Z,9.57
2018-04-22T11:37:01.762Z,12.00
2018-04-22T11:39:31.946Z,14.43
2018-04-22T11:41:59.415Z,12.07
2018-04-22T11:44:28.896Z,11.53
2018-04-22T11:46:58.758Z,9.73
2018-04-22T11:49:27.992Z,11.33
2018-04-22T11:51:57.607Z,10.87
2018-04-22T11:54:26.553Z,10.70
2018-04-22T11:56:56.962Z,10.83
2018-04-22T11:59:26.570Z,11.10
2018-04-22T12:01:55.638Z,12.90
2018-04-22T12:04:25.214Z,9.90
2018-04-22T12:06:54.840Z,10.90
2018-04-22T12:09:24.257Z,10.00
2018-04-22T12:11:53.974Z,12.87
2018-04-22T12:14:24.293Z,13.70
2018-04-22T12:16:53.683Z,10.60
2018-04-22T12:19:23.328Z,10.70
2018-04-22T12:21:51.557Z,9.70
2018-04-22T12:24:25.491Z,10.90
2018-04-22T12:26:54.874Z,9.73
2018-04-22T12:29:28.716Z,10.03
2018-04-22T12:31:58.273Z,11.50
2018-04-22T12:34:25.775Z,10.67
2018-04-22T12:36:55.378Z,8.97
2018-04-22T12:39:28.814Z,12.70
2018-04-22T12:41:58.355Z,9.60
2018-04-22T12:44:27.758Z,9.50
2018-04-22T12:46:55.308Z,11.40
2018-04-22T12:49:24.503Z,10.13
2018-04-22T12:51:54.047Z,9.07
2018-04-22T12:54:23.730Z,10.60
2018-04-22T12:56:53.340Z,8.47
2018-04-22T12:59:26.340Z,10.60
2018-04-22T13:01:55.589Z,10.80
2018-04-22T13:04:25.439Z,9.53
2018-04-22T13:07:08.910Z,8.03
2018-04-22T13:09:37.853Z,8.03
2018-04-22T13:12:07.534Z,8.37
2018-04-22T13:14:37.031Z,9.43
2018-04-22T13:17:06.613Z,10.53
2018-04-22T13:19:35.898Z,10.37
2018-04-22T13:22:09.275Z,8.10
2018-04-22T13:24:38.539Z,8.30
2018-04-22T13:27:09.185Z,10.23
2018-04-22T13:29:38.775Z,9.03
2018-04-22T13:32:07.903Z,11.23
2018-04-22T13:34:37.288Z,9.10
2018-04-22T13:37:07.219Z,8.00
2018-04-22T13:39:36.973Z,8.63
2018-04-22T13:42:05.726Z,9.40
2018-04-22T13:44:34.544Z,11.37
2018-04-22T13:47:03.015Z,7.73
2018-04-22T13:49:30.770Z,8.70
2018-04-22T13:52:00.170Z,14.20
2018-04-22T13:54:29.809Z,10.23
2018-04-22T13:56:58.585Z,13.00
2018-04-22T13:59:28.907Z,8.70
2018-04-22T14:01:57.938Z,10.67
2018-04-22T14:04:26.842Z,8.40
2018-04-22T14:06:55.937Z,9.17
2018-04-22T14:09:25.326Z,9.27
2018-04-22T14:11:59.782Z,8.97
2018-04-22T14:14:33.311Z,10.20
2018-04-22T14:17:03.171Z,13.20
2018-04-22T14:19:32.419Z,14.47
2018-04-22T14:22:11.158Z,13.40
2018-04-22T14:24:41.139Z,9.10
2018-04-22T14:27:10.738Z,9.10
2018-04-22T14:29:38.434Z,8.23
2018-04-22T14:32:09.032Z,7.70
2018-04-22T14:34:38.640Z,7.87
2018-04-22T14:37:07.981Z,9.40
2018-04-22T14:39:37.146Z,7.50
2018-04-22T14:42:07.742Z,10.87
2018-04-22T14:44:48.102Z,7.67
2018-04-22T14:47:18.364Z,8.63
2018-04-22T14:49:47.603Z,11.73
2018-04-22T14:52:18.553Z,8.93
2018-04-22T14:54:51.304Z,8.87
2018-04-22T14:57:21.306Z,7.83
2018-04-22T14:59:49.355Z,8.60
2018-04-22T15:02:18.444Z,9.23
2018-04-22T15:04:47.389Z,7.50
2018-04-22T15:07:17.515Z,10.00
2018-04-22T15:09:45.067Z,6.57
2018-04-22T15:12:14.113Z,8.10
2018-04-22T15:14:42.487Z,7.30
2018-04-22T15:17:11.941Z,10.40
2018-04-22T15:19:42.355Z,7.03
2018-04-22T15:22:12.013Z,11.00
2018-04-22T15:24:40.253Z,12.50
2018-04-22T15:27:14.379Z,9.67
2018-04-22T15:29:43.845Z,9.83
2018-04-22T15:32:12.994Z,10.70
2018-04-22T15:34:42.258Z,8.57
2018-04-22T15:37:13.005Z,7.03
2018-04-22T15:39:42.546Z,6.93
2018-04-22T15:42:11.696Z,8.00
2018-04-22T15:44:45.722Z,10.70
2018-04-22T15:47:14.701Z,10.30
2018-04-22T15:49:44.275Z,7.70
2018-04-22T15:52:13.200Z,7.63
2018-04-22T15:54:46.445Z,10.43
2018-04-22T15:57:16.036Z,9.23
2018-04-22T15:59:46.143Z,7.73
2018-04-22T16:02:13.642Z,8.20
2018-04-22T16:04:43.849Z,7.07
2018-04-22T16:07:12.739Z,10.07
2018-04-22T16:09:41.669Z,6.80
2018-04-22T16:12:10.865Z,10.03
2018-04-22T16:14:40.098Z,6.97
2018-04-22T16:17:09.768Z,7.77
2018-04-22T16:19:38.765Z,7.90
2018-04-22T16:22:08.275Z,10.90
2018-04-22T16:24:37.376Z,7.37
2018-04-22T16:27:07.372Z,8.60
2018-04-22T16:29:34.841Z,7.17
2018-04-22T16:32:04.289Z,7.90
2018-04-22T16:34:32.920Z,9.40
2018-04-22T16:37:06.150Z,11.33
2018-04-22T16:39:35.184Z,7.70
2018-04-22T16:42:04.727Z,6.83
2018-04-22T16:44:37.988Z,7.73
2018-04-22T16:47:11.250Z,9.47
2018-04-22T16:49:41.110Z,7.33
2018-04-22T16:52:10.382Z,13.43
2018-04-22T16:54:39.330Z,8.60
2018-04-22T16:57:08.118Z,13.70
2018-04-22T16:59:36.933Z,10.80
2018-04-22T17:02:06.096Z,10.07
2018-04-22T17:04:43.920Z,7.90
2018-04-22T17:07:13.091Z,18.13
2018-04-22T17:09:42.245Z,8.70
2018-04-22T17:12:10.908Z,12.87
2018-04-22T17:14:40.962Z,7.57
2018-04-22T17:22:35.767Z,11.80
2018-04-22T17:28:13.523Z,7.00
2018-04-22T17:30:43.867Z,14.77
2018-04-22T17:33:13.050Z,10.50
2018-04-22T17:35:47.743Z,13.20
2018-04-22T17:38:17.191Z,12.93
2018-04-22T17:43:47.850Z,11.63
2018-04-22T17:46:17.379Z,11.10
2018-04-22T17:48:46.113Z,10.67
2018-04-22T17:51:19.443Z,13.37
2018-04-22T17:53:49.480Z,12.80
2018-04-22T17:56:23.607Z,10.27
2018-04-22T17:58:56.661Z,13.40
2018-04-22T18:01:25.810Z,14.07
2018-04-22T18:03:53.860Z,10.90
2018-04-22T18:06:23.024Z,12.80
2018-04-22T18:08:52.479Z,12.60
2018-04-22T18:11:21.017Z,11.80
2018-04-22T18:13:53.217Z,18.07
2018-04-22T18:16:23.617Z,10.43
2018-04-22T18:18:53.022Z,8.40
2018-04-22T18:21:22.721Z,16.03
2018-04-22T18:23:51.099Z,8.60
2018-04-22T18:26:20.011Z,14.80
2018-04-22T18:28:50.572Z,10.50
2018-04-22T18:31:19.722Z,11.43
2018-04-22T18:33:49.052Z,13.73
2018-04-22T18:36:17.929Z,9.53
2018-04-22T18:38:47.773Z,11.13
2018-04-22T18:41:15.996Z,10.60
2018-04-22T18:43:45.215Z,9.77
2018-04-22T18:46:14.963Z,11.73
2018-04-22T18:48:44.071Z,12.40
2018-04-22T18:51:13.613Z,13.63
2018-04-22T18:53:42.959Z,11.43
2018-04-22T18:56:11.612Z,11.93
2018-04-22T18:58:45.410Z,11.30
2018-04-22T19:01:14.033Z,11.17
2018-04-22T19:03:42.548Z,9.57
2018-04-22T19:06:12.068Z,16.17
2018-04-22T19:08:41.630Z,8.77
2018-04-22T19:11:18.096Z,10.33
2018-04-22T19:13:47.037Z,15.27
2018-04-22T19:16:20.960Z,10.03
2018-04-22T19:18:49.736Z,13.30
2018-04-22T19:21:18.673Z,8.80
2018-04-22T19:23:47.986Z,11.50
2018-04-22T19:26:19.194Z,9.80
2018-04-22T19:28:48.136Z,13.20
2018-04-22T19:31:17.949Z,13.50
2018-04-22T19:33:45.460Z,11.70
2018-04-22T19:36:18.555Z,12.33
2018-04-22T19:38:48.166Z,13.10
2018-04-22T19:41:17.128Z,11.60
2018-04-22T19:43:52.344Z,10.03
2018-04-22T19:46:21.157Z,10.77
2018-04-22T19:48:50.280Z,14.53
2018-04-22T19:51:19.775Z,11.27
2018-04-22T19:53:53.458Z,11.20
2018-04-22T19:56:22.965Z,11.47
2018-04-22T19:58:52.763Z,10.43
2018-04-22T20:01:21.737Z,10.10
2018-04-22T20:03:50.307Z,15.03
2018-04-22T20:06:20.813Z,10.53
2018-04-22T20:08:49.225Z,10.47
2018-04-22T20:11:19.678Z,12.77
2018-04-22T20:13:48.846Z,12.90
2018-04-22T20:16:17.962Z,12.23
2018-04-22T20:18:47.132Z,12.80
2018-04-22T20:21:18.542Z,10.03
2018-04-22T20:23:48.248Z,9.97
2018-04-22T20:26:17.446Z,9.30
2018-04-22T20:28:45.806Z,11.97
2018-04-22T20:31:14.130Z,10.40
2018-04-22T20:33:41.706Z,14.90
2018-04-22T20:36:10.764Z,10.90
2018-04-22T20:38:45.211Z,9.40
2018-04-22T20:41:15.493Z,11.90
2018-04-22T20:43:44.877Z,9.30
2018-04-22T20:46:19.121Z,11.83
2018-04-22T20:48:48.231Z,8.90
2018-04-22T20:51:18.187Z,10.13
2018-04-22T20:53:51.400Z,8.17
2018-04-22T20:56:26.059Z,8.77
2018-04-22T20:58:54.894Z,8.30
2018-04-22T21:01:24.025Z,8.33
2018-04-22T21:03:53.161Z,8.40
2018-04-22T21:06:22.099Z,8.77
2018-04-22T21:08:52.105Z,7.57
2018-04-22T21:11:19.549Z,7.03
2018-04-22T21:13:49.572Z,8.63
2018-04-22T21:16:18.441Z,8.53
2018-04-22T21:18:47.033Z,9.10
2018-04-22T21:21:16.129Z,10.43
2018-04-22T21:23:45.539Z,14.13
2018-04-22T21:26:14.951Z,12.43
2018-04-22T21:28:43.904Z,11.13
2018-04-22T21:31:12.944Z,11.83
2018-04-22T21:33:42.347Z,12.73
2018-04-22T21:36:09.802Z,12.43
2018-04-22T21:38:38.568Z,9.43
2018-04-22T21:41:07.618Z,11.27
2018-04-22T21:43:36.466Z,10.30
2018-04-22T21:46:06.616Z,10.50
2018-04-22T21:48:35.358Z,9.07
2018-04-22T21:51:06.538Z,8.13
2018-04-22T21:53:40.063Z,8.87
2018-04-22T21:56:09.694Z,12.00
2018-04-22T21:58:40.249Z,9.17
2018-04-22T22:01:13.418Z,8.73
2018-04-22T22:03:42.191Z,11.23
2018-04-22T22:06:11.880Z,9.60
2018-04-22T22:08:41.142Z,8.10
2018-04-22T22:11:10.152Z,8.90
2018-04-22T22:13:43.603Z,9.60
2018-04-22T22:16:12.457Z,9.90
2018-04-22T22:18:41.784Z,9.53
2018-04-22T22:21:15.067Z,9.93
2018-04-22T22:23:44.266Z,8.20
2018-04-22T22:26:13.510Z,11.30
2018-04-22T22:28:43.356Z,9.57
2018-04-22T22:31:17.258Z,7.80
2018-04-22T22:33:48.464Z,11.03
2018-04-22T22:36:17.575Z,8.93
2018-04-22T22:38:47.244Z,10.67
2018-04-22T22:41:14.738Z,12.90
2018-04-22T22:43:43.839Z,8.60
2018-04-22T22:46:13.074Z,10.57
2018-04-22T22:48:42.418Z,12.70
2018-04-22T22:51:12.092Z,9.13
2018-04-22T22:53:41.363Z,7.43
2018-04-22T22:56:10.904Z,9.47
2018-04-22T22:58:39.595Z,8.60
2018-04-22T23:01:09.236Z,9.30
2018-04-22T23:03:42.758Z,8.90
2018-04-22T23:06:13.007Z,7.47
2018-04-22T23:08:41.896Z,11.50
2018-04-22T23:11:10.301Z,8.70
2018-04-22T23:13:39.642Z,9.10
2018-04-22T23:16:08.683Z,8.10
2018-04-22T23:18:36.143Z,8.70
2018-04-22T23:21:08.974Z,9.03
2018-04-22T23:23:39.996Z,10.20
2018-04-22T23:26:11.436Z,7.80
2018-04-22T23:28:41.312Z,12.77
2018-04-22T23:31:08.738Z,10.50
2018-04-22T23:33:37.694Z,10.43
2018-04-22T23:36:07.184Z,7.90
2018-04-22T23:38:36.300Z,8.13
2018-04-22T23:41:05.364Z,9.63
2018-04-22T23:43:34.664Z,9.00
2018-04-22T23:46:03.396Z,12.70
2018-04-22T23:48:32.886Z,8.63
2018-04-22T23:51:02.193Z,10.90
2018-04-22T23:53:31.246Z,9.80
2018-04-22T23:56:00.107Z,8.00
2018-04-22T23:58:28.683Z,8.63
